Buoy 52912

sailwx.info

Track history (hours):
 
Tides and Currents Weather Stations Pressure Air Temp Water Temp Dewpoint Dewpoint Depression Visibility Wind Speed Wind Dir Waves Ship Positions

Drifting buoy 52912

Last reported at 2014-Oct-31 03:00 UTC. Time now 2014-Oct-31 11:23 UTC.
Position N 06°22' E 160°29'.

Water temperature 30.4 ° C

Date/timePositionNaut miles runAvg speedWind from/ knotsBaromVisibWave heightAir tempDewpointWater temp
2014-Oct-31 03:00N 06°22' E 160°29'0 0.0 30.4
2014-Oct-31 02:00N 06°22' E 160°29'3 1.3 30.2
2014-Oct-31 00:00N 06°23' E 160°27'5 1.8 30.1
2014-Oct-30 21:00N 06°25' E 160°22'6 0.9 29.8
2014-Oct-30 15:00N 06°27' E 160°17'2 2.1 29.9
2014-Oct-30 14:00N 06°28' E 160°15'8 1.3 29.9
2014-Oct-30 08:00N 06°32' E 160°08'0 0.0 29.9
2014-Oct-30 07:00N 06°32' E 160°08'0 0.0 29.9
2014-Oct-30 06:00N 06°32' E 160°08'0 0.0 29.9
2014-Oct-30 05:00N 06°32' E 160°08'4 2.1 29.9
2014-Oct-30 03:00N 06°33' E 160°03'3 0.8 30.0
2014-Oct-29 23:00N 06°34' E 160°01'1 1.3 29.9
2014-Oct-29 22:00N 06°35' E 159°59'2 0.8 29.9
2014-Oct-29 20:00N 06°35' E 159°58'1 0.7 29.8
2014-Oct-29 19:00N 06°35' E 159°57'1 0.6 29.8
2014-Oct-29 18:00N 06°35' E 159°57'2 1.7 29.8
2014-Oct-29 17:00N 06°35' E 159°55'4 0.7 29.8
2014-Oct-29 11:00N 06°35' E 159°51'0 0.2 29.9
2014-Oct-29 10:00N 06°35' E 159°51'1 0.2 29.9
2014-Oct-29 05:00N 06°35' E 159°50'1 0.6 30.1
2014-Oct-29 04:00N 06°36' E 159°50'0 0.0 30.2
2014-Oct-29 03:00N 06°36' E 159°50'0 0.0 30.3
2014-Oct-29 02:00N 06°36' E 159°50'3 1.4 30.5
2014-Oct-29 00:00N 06°38' E 159°48'1 0.2 30.6
2014-Oct-28 18:00N 06°39' E 159°49'1 0.3 29.1
2014-Oct-28 16:00N 06°40' E 159°49'3 1.3 29.5
2014-Oct-28 14:00N 06°42' E 159°50'0 0.0 30.0
2014-Oct-28 10:00N 06°42' E 159°50'3 0.7 30.0
2014-Oct-28 05:00N 06°46' E 159°52'2 0.8 30.2
2014-Oct-28 03:00N 06°47' E 159°53'6 1.3 30.7
2014-Oct-27 22:00N 06°53' E 159°55'1 0.2 29.9
2014-Oct-27 19:00N 06°53' E 159°55'0 0.4 29.8
2014-Oct-27 18:00N 06°54' E 159°55'2 0.4 29.9
2014-Oct-27 11:00N 06°56' E 159°55'3 2.6 30.3
2014-Oct-27 10:00N 06°59' E 159°55'1 0.3 30.3
2014-Oct-27 06:00N 06°59' E 159°56'0 0.0 30.5
2014-Oct-27 05:00N 06°59' E 159°56'1 0.9 30.5
2014-Oct-27 04:00N 06°60' E 159°56'1 0.6 31.6
2014-Oct-27 02:00N 07°00' E 159°55'1 0.3 31.0
2014-Oct-26 23:00N 07°01' E 159°54'0 0.4 30.4
2014-Oct-26 22:00N 07°01' E 159°54'1 0.3 30.0
2014-Oct-26 19:00N 07°01' E 159°55'1 0.3 29.9
2014-Oct-26 16:00N 07°01' E 159°54'0 0.0 29.8
2014-Oct-26 15:00N 07°01' E 159°54'1 0.1 29.9
2014-Oct-26 07:00N 07°02' E 159°55'0 0.2 30.1
2014-Oct-26 06:00N 07°01' E 159°55'1 0.2 30.2
2014-Oct-26 02:00N 07°01' E 159°54'0 0.0 30.2
2014-Oct-26 01:00N 07°01' E 159°54'1 0.1 30.1
2014-Oct-25 20:00N 07°01' E 159°54'1 0.6 29.7
2014-Oct-25 18:00N 07°01' E 159°55'1 0.5 29.7
2014-Oct-25 17:00N 07°01' E 159°55'1 0.3 29.7
2014-Oct-25 15:00N 07°01' E 159°55'1 0.3 29.8
2014-Oct-25 11:00N 07°01' E 159°54'1 0.6 29.8
2014-Oct-25 10:00N 07°01' E 159°54'0 0.0 29.8
2014-Oct-25 09:00N 07°01' E 159°54'1 0.5 29.8
2014-Oct-25 07:00N 07°00' E 159°55'1 0.2 29.9
2014-Oct-25 04:00N 06°60' E 159°55'1 0.2 30.1
2014-Oct-24 23:00N 06°59' E 159°54'1 0.1 29.9
2014-Oct-24 19:00N 06°58' E 159°55'0 0.0 29.7
2014-Oct-24 18:00N 06°58' E 159°55'0 0.0 29.7
2014-Oct-24 17:00N 06°58' E 159°55'1 0.6 29.8
2014-Oct-24 15:00N 06°58' E 159°54'0 0.0 29.8
2014-Oct-24 14:00N 06°58' E 159°54'2 0.7 29.8
2014-Oct-24 11:00N 06°56' E 159°54'1 0.4 29.8
2014-Oct-24 09:00N 06°56' E 159°55'1 1.4 29.9
2014-Oct-24 08:00N 06°57' E 159°56'1 0.2 29.9
2014-Oct-24 04:00N 06°57' E 159°57'1 0.3 30.0
2014-Oct-24 02:00N 06°57' E 159°56'0 0.1 29.9
2014-Oct-24 01:00N 06°57' E 159°57'1 1.3 29.9
2014-Oct-24 00:00N 06°58' E 159°56'0 0.0 29.9
2014-Oct-23 23:00N 06°58' E 159°56'0 0.0 29.8
2014-Oct-23 22:00N 06°58' E 159°56'2 0.7 29.7
2014-Oct-23 19:00N 06°60' E 159°58'1 0.4 29.7
2014-Oct-23 17:00N 06°60' E 159°57'0 0.1 29.7
2014-Oct-23 15:00N 06°60' E 159°57'0 0.0 29.7
2014-Oct-23 14:00N 06°60' E 159°57'2 0.8 29.7
2014-Oct-23 11:00N 06°59' E 159°55'0 0.0 29.7
2014-Oct-23 10:00N 06°59' E 159°55'1 0.4 29.7
2014-Oct-23 06:00N 07°00' E 159°55'0 0.1 29.8
2014-Oct-23 04:00N 07°00' E 159°55'1 0.2 29.8
2014-Oct-22 23:00N 07°01' E 159°55'0 0.1 29.8
2014-Oct-22 22:00N 07°01' E 159°55'1 0.4 29.8
2014-Oct-22 20:00N 07°01' E 159°54'1 1.0 29.7
2014-Oct-22 19:00N 07°01' E 159°55'1 0.3 29.7
2014-Oct-22 17:00N 07°02' E 159°54'1 0.3 29.7
2014-Oct-22 15:00N 07°02' E 159°54'1 0.3 29.7
2014-Oct-22 11:00N 07°02' E 159°53'1 0.5 29.8
2014-Oct-22 10:00N 07°03' E 159°53'1 0.2 29.8
2014-Oct-22 07:00N 07°03' E 159°52'1 1.2 29.8
2014-Oct-22 06:00N 07°05' E 159°52'0 0.0 29.8
2014-Oct-22 05:00N 07°05' E 159°52'0 0.0 29.8
2014-Oct-22 03:00N 07°05' E 159°52'1 0.4 29.9
2014-Oct-21 23:00N 07°05' E 159°51'1 0.1 29.8
2014-Oct-21 19:00N 07°06' E 159°51'1 0.5 29.8
2014-Oct-21 18:00N 07°06' E 159°51'1 0.2 29.8
2014-Oct-21 11:00N 07°06' E 159°50'0 0.2 30.1
2014-Oct-21 08:00N 07°06' E 159°49'0 0.1 30.4
2014-Oct-21 05:00N 07°06' E 159°49'1 0.3 30.8
2014-Oct-21 03:00N 07°06' E 159°48'   30.8
Track history (hours):
 
Tides and Currents Weather Stations Pressure Air Temp Water Temp Dewpoint Dewpoint Depression Visibility Wind Speed Wind Dir Waves Ship Positions

Drifting buoy 52912

Last reported at 2014-Oct-31 03:00 UTC. Time now 2014-Oct-31 11:23 UTC.
Position N 06°22' E 160°29'.

Water temperature 30.4 ° C

Date/timePositionNaut miles runAvg speedWind from/ knotsBaromVisibWave heightAir tempDewpointWater temp
2014-Oct-31 03:00N 06°22' E 160°29'0 0.0 30.4
2014-Oct-31 02:00N 06°22' E 160°29'3 1.3 30.2
2014-Oct-31 00:00N 06°23' E 160°27'5 1.8 30.1
2014-Oct-30 21:00N 06°25' E 160°22'6 0.9 29.8
2014-Oct-30 15:00N 06°27' E 160°17'2 2.1 29.9
2014-Oct-30 14:00N 06°28' E 160°15'8 1.3 29.9
2014-Oct-30 08:00N 06°32' E 160°08'0 0.0 29.9
2014-Oct-30 07:00N 06°32' E 160°08'0 0.0 29.9
2014-Oct-30 06:00N 06°32' E 160°08'0 0.0 29.9
2014-Oct-30 05:00N 06°32' E 160°08'4 2.1 29.9
2014-Oct-30 03:00N 06°33' E 160°03'3 0.8 30.0
2014-Oct-29 23:00N 06°34' E 160°01'1 1.3 29.9
2014-Oct-29 22:00N 06°35' E 159°59'2 0.8 29.9
2014-Oct-29 20:00N 06°35' E 159°58'1 0.7 29.8
2014-Oct-29 19:00N 06°35' E 159°57'1 0.6 29.8
2014-Oct-29 18:00N 06°35' E 159°57'2 1.7 29.8
2014-Oct-29 17:00N 06°35' E 159°55'4 0.7 29.8
2014-Oct-29 11:00N 06°35' E 159°51'0 0.2 29.9
2014-Oct-29 10:00N 06°35' E 159°51'1 0.2 29.9
2014-Oct-29 05:00N 06°35' E 159°50'1 0.6 30.1
2014-Oct-29 04:00N 06°36' E 159°50'0 0.0 30.2
2014-Oct-29 03:00N 06°36' E 159°50'0 0.0 30.3
2014-Oct-29 02:00N 06°36' E 159°50'3 1.4 30.5
2014-Oct-29 00:00N 06°38' E 159°48'1 0.2 30.6
2014-Oct-28 18:00N 06°39' E 159°49'1 0.3 29.1
2014-Oct-28 16:00N 06°40' E 159°49'3 1.3 29.5
2014-Oct-28 14:00N 06°42' E 159°50'0 0.0 30.0
2014-Oct-28 10:00N 06°42' E 159°50'3 0.7 30.0
2014-Oct-28 05:00N 06°46' E 159°52'2 0.8 30.2
2014-Oct-28 03:00N 06°47' E 159°53'6 1.3 30.7
2014-Oct-27 22:00N 06°53' E 159°55'1 0.2 29.9
2014-Oct-27 19:00N 06°53' E 159°55'0 0.4 29.8
2014-Oct-27 18:00N 06°54' E 159°55'2 0.4 29.9
2014-Oct-27 11:00N 06°56' E 159°55'3 2.6 30.3
2014-Oct-27 10:00N 06°59' E 159°55'1 0.3 30.3
2014-Oct-27 06:00N 06°59' E 159°56'0 0.0 30.5
2014-Oct-27 05:00N 06°59' E 159°56'1 0.9 30.5
2014-Oct-27 04:00N 06°60' E 159°56'1 0.6 31.6
2014-Oct-27 02:00N 07°00' E 159°55'1 0.3 31.0
2014-Oct-26 23:00N 07°01' E 159°54'0 0.4 30.4
2014-Oct-26 22:00N 07°01' E 159°54'1 0.3 30.0
2014-Oct-26 19:00N 07°01' E 159°55'1 0.3 29.9
2014-Oct-26 16:00N 07°01' E 159°54'0 0.0 29.8
2014-Oct-26 15:00N 07°01' E 159°54'1 0.1 29.9
2014-Oct-26 07:00N 07°02' E 159°55'0 0.2 30.1
2014-Oct-26 06:00N 07°01' E 159°55'1 0.2 30.2
2014-Oct-26 02:00N 07°01' E 159°54'0 0.0 30.2
2014-Oct-26 01:00N 07°01' E 159°54'1 0.1 30.1
2014-Oct-25 20:00N 07°01' E 159°54'1 0.6 29.7
2014-Oct-25 18:00N 07°01' E 159°55'1 0.5 29.7
2014-Oct-25 17:00N 07°01' E 159°55'1 0.3 29.7
2014-Oct-25 15:00N 07°01' E 159°55'1 0.3 29.8
2014-Oct-25 11:00N 07°01' E 159°54'1 0.6 29.8
2014-Oct-25 10:00N 07°01' E 159°54'0 0.0 29.8
2014-Oct-25 09:00N 07°01' E 159°54'1 0.5 29.8
2014-Oct-25 07:00N 07°00' E 159°55'1 0.2 29.9
2014-Oct-25 04:00N 06°60' E 159°55'1 0.2 30.1
2014-Oct-24 23:00N 06°59' E 159°54'1 0.1 29.9
2014-Oct-24 19:00N 06°58' E 159°55'0 0.0 29.7
2014-Oct-24 18:00N 06°58' E 159°55'0 0.0 29.7
2014-Oct-24 17:00N 06°58' E 159°55'1 0.6 29.8
2014-Oct-24 15:00N 06°58' E 159°54'0 0.0 29.8
2014-Oct-24 14:00N 06°58' E 159°54'2 0.7 29.8
2014-Oct-24 11:00N 06°56' E 159°54'1 0.4 29.8
2014-Oct-24 09:00N 06°56' E 159°55'1 1.4 29.9
2014-Oct-24 08:00N 06°57' E 159°56'1 0.2 29.9
2014-Oct-24 04:00N 06°57' E 159°57'1 0.3 30.0
2014-Oct-24 02:00N 06°57' E 159°56'0 0.1 29.9
2014-Oct-24 01:00N 06°57' E 159°57'1 1.3 29.9
2014-Oct-24 00:00N 06°58' E 159°56'0 0.0 29.9
2014-Oct-23 23:00N 06°58' E 159°56'0 0.0 29.8
2014-Oct-23 22:00N 06°58' E 159°56'2 0.7 29.7
2014-Oct-23 19:00N 06°60' E 159°58'1 0.4 29.7
2014-Oct-23 17:00N 06°60' E 159°57'0 0.1 29.7
2014-Oct-23 15:00N 06°60' E 159°57'0 0.0 29.7
2014-Oct-23 14:00N 06°60' E 159°57'2 0.8 29.7
2014-Oct-23 11:00N 06°59' E 159°55'0 0.0 29.7
2014-Oct-23 10:00N 06°59' E 159°55'1 0.4 29.7
2014-Oct-23 06:00N 07°00' E 159°55'0 0.1 29.8
2014-Oct-23 04:00N 07°00' E 159°55'1 0.2 29.8
2014-Oct-22 23:00N 07°01' E 159°55'0 0.1 29.8
2014-Oct-22 22:00N 07°01' E 159°55'1 0.4 29.8
2014-Oct-22 20:00N 07°01' E 159°54'1 1.0 29.7
2014-Oct-22 19:00N 07°01' E 159°55'1 0.3 29.7
2014-Oct-22 17:00N 07°02' E 159°54'1 0.3 29.7
2014-Oct-22 15:00N 07°02' E 159°54'1 0.3 29.7
2014-Oct-22 11:00N 07°02' E 159°53'1 0.5 29.8
2014-Oct-22 10:00N 07°03' E 159°53'1 0.2 29.8
2014-Oct-22 07:00N 07°03' E 159°52'1 1.2 29.8
2014-Oct-22 06:00N 07°05' E 159°52'0 0.0 29.8
2014-Oct-22 05:00N 07°05' E 159°52'0 0.0 29.8
2014-Oct-22 03:00N 07°05' E 159°52'1 0.4 29.9
2014-Oct-21 23:00N 07°05' E 159°51'1 0.1 29.8
2014-Oct-21 19:00N 07°06' E 159°51'1 0.5 29.8
2014-Oct-21 18:00N 07°06' E 159°51'1 0.2 29.8
2014-Oct-21 11:00N 07°06' E 159°50'0 0.2 30.1
2014-Oct-21 08:00N 07°06' E 159°49'0 0.1 30.4
2014-Oct-21 05:00N 07°06' E 159°49'1 0.3 30.8
2014-Oct-21 03:00N 07°06' E 159°48'   30.8

Dump ship's entire track history